Latest METARs, TAFs and NOTAMs for MMSD


---------------------------------------------------------------------------
	(OBSERVATIONS)
MMSD 150347Z 2200KT 10SM  FEW015 FEW070 SCT120 18/17 A2994  RMK
    8/870=
MMSD 150251Z 00000KT 10SM  FEW015 FEW070 SCT120 19/17 A2994 
    RMK SLP130 52009 965 8/87/=
MMSD 150152Z 00000KT 10SM  FEW015 FEW070 SCT120 20/17 A2993 
    RMK 8/87/=
---------------------------------------------------------------------------
	(TERMINAL AREA FORECAST)
MMSD 141647Z 1418/1518 14008KT P6SM SCT020 BKN090 BKN250
    PROB40
    1500/1504 6SM -RA
    FM150600 30006KT P6SM BKN250
    FM151700 07006KT P6SM SKC=
---------------------------------------------------------------------------
	(NOTAMS)


MMSD A5164/17 IN OPR NEWS ACFT STAND NRS-19,20,21 AND 22 COMMERCIAL
    AVIATION APRON PCN: 87 R/A/W/T. 21 AUG 13:00 2017 UNTIL PERM.
    CREATED: 20 AUG 18:28 2017

MMSD A5178/17 IN OPR NEW TWY K BTN TWY A AND COMMERCIAL AVIATION
    APRON PCN: 87 R/A/W/T WD: 23 M. 21 AUG 16:14 2017 UNTIL PERM.
    CREATED: 21 AUG 16:24 2017

MMSD A7136/17 CD OPR IN FREQ 135.20 MHZ. 1800/2300 DLY, 01 NOV
    18:00 2017 UNTIL 31 DEC 23:00 2017. CREATED: 31 OCT 17:37
    2017

MMSD A7424/17 ACFT STANDS NRS-15 AND 16 COMMERCIAL AVIATION APRON
    CLSD. 11 NOV 01:00 2017 UNTIL 21 DEC 17:00 2017. CREATED:
    10 NOV 21:40 2017

MMSD A8391/17 ABN U/S. 15 DEC 02:00 2017 UNTIL 31 JAN 02:00 2018.
    CREATED: 15 DEC 01:35 2017

---------------------------------------------------------------------------